Time;durP1;ratioP1;P1;durP2;ratioP2;P2;SDS_P1;SDS_P2;PMS_P1;PMS_P2;Temp;Humidity;BMP_temperature;BMP_pressure;BME280_temperature;BME280_humidity;BME280_pressure;Samples;Min_cycle;Max_cycle;Signal;HPM_P1;HPM_P2
2023/03/08 00:00:13;;;;;;;6.45;1.98;;;;;;;3.94;54.51;98137.59;5092252;28;20039;-58
2023/03/08 00:02:38;;;;;;;3.70;1.48;;;;;;;3.74;55.42;98139.94;5091644;28;20036;-58
2023/03/08 00:05:05;;;;;;;6.22;1.60;;;;;;;3.68;54.82;98136.63;5092610;28;20521;-58
2023/03/08 00:07:31;;;;;;;3.78;1.45;;;;;;;3.83;54.71;98140.53;5093717;28;20067;-58
2023/03/08 00:09:56;;;;;;;5.28;1.20;;;;;;;3.87;54.77;98144.72;5097473;28;20119;-58
2023/03/08 00:12:22;;;;;;;5.25;1.30;;;;;;;3.72;55.07;98136.53;5097336;28;20032;-58
2023/03/08 00:14:50;;;;;;;4.80;1.27;;;;;;;3.89;54.87;98155.06;5097630;28;20040;-58
2023/03/08 00:17:17;;;;;;;4.53;1.10;;;;;;;3.79;54.45;98148.44;5090970;28;20040;-59
2023/03/08 00:19:43;;;;;;;3.13;1.30;;;;;;;3.98;54.42;98139.19;5085835;28;20032;-58
2023/03/08 00:22:09;;;;;;;4.22;1.30;;;;;;;3.81;54.59;98149.25;5096215;28;20039;-59
2023/03/08 00:24:35;;;;;;;5.93;1.17;;;;;;;3.78;54.84;98142.38;5096951;28;20032;-59
2023/03/08 00:27:01;;;;;;;9.43;1.40;;;;;;;3.77;54.79;98145.03;5096970;28;20044;-59
2023/03/08 00:29:27;;;;;;;5.75;1.60;;;;;;;3.63;55.05;98143.72;5095847;28;20042;-59
2023/03/08 00:31:52;;;;;;;6.03;1.77;;;;;;;3.78;54.43;98162.31;5096382;28;20032;-58
2023/03/08 00:34:18;;;;;;;5.78;1.75;;;;;;;3.55;54.74;98156.06;5096257;28;20048;-58
2023/03/08 00:36:43;;;;;;;4.47;1.70;;;;;;;3.52;54.96;98156.16;5093965;28;20048;-58
2023/03/08 00:39:10;;;;;;;2.88;1.23;;;;;;;3.68;54.58;98161.75;5096071;28;20540;-58
2023/03/08 00:41:36;;;;;;;4.68;1.50;;;;;;;3.36;54.62;98160.94;5096784;28;20020;-58
2023/03/08 00:44:02;;;;;;;5.40;1.60;;;;;;;3.61;54.31;98161.06;5096894;28;20096;-58
2023/03/08 00:46:28;;;;;;;4.50;1.30;;;;;;;3.57;54.18;98167.25;5090156;28;20043;-58
2023/03/08 00:48:53;;;;;;;3.92;1.00;;;;;;;3.74;53.96;98163.31;5095854;28;20028;-58
2023/03/08 00:51:20;;;;;;;5.13;1.20;;;;;;;3.63;53.76;98161.88;5094345;28;20043;-58
2023/03/08 00:53:45;;;;;;;5.40;1.13;;;;;;;3.54;53.21;98169.91;5090458;28;20028;-58
2023/03/08 00:56:11;;;;;;;3.50;1.08;;;;;;;3.31;53.00;98165.41;5095576;28;20032;-58
2023/03/08 00:58:38;;;;;;;6.00;1.50;;;;;;;3.38;53.36;98174.69;5095796;28;20039;-58
2023/03/08 01:01:05;;;;;;;3.17;1.00;;;;;;;3.42;52.47;98170.28;5096591;28;20032;-57
2023/03/08 01:03:31;;;;;;;2.30;0.77;;;;;;;3.01;51.87;98190.41;5095492;28;20032;-57
2023/03/08 01:05:58;;;;;;;7.07;1.15;;;;;;;3.24;53.26;98168.19;5095830;28;20502;-58
2023/03/08 01:08:25;;;;;;;3.60;0.80;;;;;;;3.29;52.36;98176.72;5096267;28;20036;-57
2023/03/08 01:10:53;;;;;;;4.18;1.10;;;;;;;3.04;51.01;98187.75;5095370;28;20032;-57
2023/03/08 01:13:20;;;;;;;2.63;0.70;;;;;;;3.46;51.74;98177.94;5096441;28;20039;-58
2023/03/08 01:15:45;;;;;;;2.15;0.90;;;;;;;3.13;51.94;98164.13;5096130;28;20032;-57
2023/03/08 01:18:11;;;;;;;2.78;0.70;;;;;;;3.40;51.78;98177.28;5096103;28;20032;-58
2023/03/08 01:20:36;;;;;;;4.00;0.95;;;;;;;3.31;52.24;98160.22;5095507;28;20206;-58
2023/03/08 01:23:02;;;;;;;2.53;0.88;;;;;;;3.17;51.10;98157.97;5095913;28;20036;-58
2023/03/08 01:25:28;;;;;;;2.80;0.88;;;;;;;3.51;51.02;98172.63;5095064;28;20035;-57
2023/03/08 01:27:53;;;;;;;2.88;0.75;;;;;;;3.39;50.90;98175.53;5096197;28;20131;-56
2023/03/08 01:30:19;;;;;;;3.97;0.52;;;;;;;3.54;51.00;98174.28;5094772;28;20031;-57
2023/03/08 01:32:44;;;;;;;5.65;0.80;;;;;;;3.53;51.41;98170.81;5095981;28;20040;-58
2023/03/08 01:35:10;;;;;;;3.63;0.60;;;;;;;3.29;51.68;98181.91;5095662;28;20377;-57
2023/03/08 01:37:36;;;;;;;4.35;0.68;;;;;;;3.15;51.65;98166.69;5095737;28;20487;-58
2023/03/08 01:40:03;;;;;;;4.07;0.90;;;;;;;3.31;51.44;98178.38;5095644;28;20042;-57
2023/03/08 01:42:28;;;;;;;2.10;1.08;;;;;;;3.00;50.15;98173.16;5095713;28;20040;-57
2023/03/08 01:45:00;;;;;;;2.05;0.60;;;;;;;3.17;50.01;98180.47;5095913;28;20039;-58
2023/03/08 01:47:28;;;;;;;2.75;0.70;;;;;;;2.95;50.13;98167.22;5093901;28;20067;-58
2023/03/08 01:50:02;;;;;;;2.25;0.80;;;;;;;3.41;49.71;98174.63;5095701;28;20418;-58
2023/03/08 01:52:42;;;;;;;1.92;0.75;;;;;;;3.46;50.00;98177.06;5094893;28;20055;-57
2023/03/08 01:55:11;;;;;;;3.22;0.95;;;;;;;3.25;50.20;98183.72;5075567;28;20032;-57
2023/03/08 01:57:40;;;;;;;5.13;0.85;;;;;;;3.29;50.20;98171.50;5085157;28;20028;-57
2023/03/08 02:00:13;;;;;;;3.45;0.70;;;;;;;3.36;50.61;98170.47;5095274;28;20028;-58
2023/03/08 02:02:48;;;;;;;2.28;0.90;;;;;;;3.15;51.15;98157.19;5095373;28;20106;-58
2023/03/08 02:05:15;;;;;;;5.68;1.10;;;;;;;3.00;51.57;98188.72;5095386;28;20031;-57
2023/03/08 02:07:40;;;;;;;2.90;1.10;;;;;;;3.04;51.99;98161.81;5095357;28;20039;-58
2023/03/08 02:10:06;;;;;;;4.70;0.82;;;;;;;3.17;51.89;98165.75;5097094;28;20032;-57
2023/03/08 02:12:33;;;;;;;7.95;0.90;;;;;;;3.29;51.78;98164.56;5115394;27;20032;-58
2023/03/08 02:14:59;;;;;;;3.97;0.85;;;;;;;3.28;51.80;98167.22;5112646;28;20114;-57
2023/03/08 02:17:25;;;;;;;2.50;0.68;;;;;;;3.01;52.42;98164.47;5095303;28;20418;-58
2023/03/08 02:19:52;;;;;;;4.53;1.00;;;;;;;2.89;51.87;98164.78;5095180;28;20045;-58
2023/03/08 02:22:19;;;;;;;3.08;0.88;;;;;;;3.06;51.79;98166.94;5095031;28;20042;-58
2023/03/08 02:24:44;;;;;;;4.18;0.75;;;;;;;2.92;51.69;98170.75;5093745;28;20043;-58
2023/03/08 02:27:16;;;;;;;3.38;0.80;;;;;;;3.15;51.11;98171.88;5094991;28;20032;-57
2023/03/08 02:29:41;;;;;;;1.38;0.77;;;;;;;2.84;51.41;98184.81;5094661;28;20111;-57
2023/03/08 02:32:07;;;;;;;2.15;0.55;;;;;;;2.88;50.61;98184.69;5094858;28;20454;-58
2023/03/08 02:34:33;;;;;;;3.85;0.60;;;;;;;2.97;50.82;98181.00;5094649;28;20032;-57
2023/03/08 02:36:59;;;;;;;2.28;1.10;;;;;;;2.89;50.92;98186.38;5094811;28;20079;-58
2023/03/08 02:39:24;;;;;;;2.85;0.50;;;;;;;2.70;50.39;98170.44;5094812;28;20059;-57
2023/03/08 02:41:49;;;;;;;3.10;0.50;;;;;;;2.71;50.31;98192.91;5094897;28;20040;-57
2023/03/08 02:44:15;;;;;;;2.45;0.65;;;;;;;2.86;49.59;98183.03;5094749;28;20111;-56
2023/03/08 02:46:40;;;;;;;4.45;0.60;;;;;;;2.92;50.00;98191.50;5093164;28;20090;-57
2023/03/08 02:49:06;;;;;;;2.00;0.60;;;;;;;2.78;49.54;98190.16;5094519;28;20032;-57
2023/03/08 02:51:31;;;;;;;3.63;0.35;;;;;;;2.50;48.71;98184.78;5094636;28;20476;-57
2023/03/08 02:53:57;;;;;;;3.22;0.57;;;;;;;2.54;48.93;98202.81;5094229;28;20085;-57
2023/03/08 02:56:22;;;;;;;2.75;0.40;;;;;;;2.47;49.52;98170.16;5094517;28;20039;-57
2023/03/08 02:58:48;;;;;;;3.33;0.70;;;;;;;2.79;49.32;98176.28;5093044;28;20182;-57
2023/03/08 03:01:13;;;;;;;2.80;0.85;;;;;;;2.66;49.12;98174.00;5094436;28;20028;-59
2023/03/08 03:03:40;;;;;;;2.83;0.57;;;;;;;2.63;48.12;98174.09;5094317;28;20035;-58
2023/03/08 03:06:16;;;;;;;2.10;0.38;;;;;;;2.67;48.54;98174.84;5093983;28;20467;-58
2023/03/08 03:08:41;;;;;;;2.70;0.43;;;;;;;2.74;48.36;98176.41;5094438;28;20031;-59
2023/03/08 03:11:14;;;;;;;5.60;0.60;;;;;;;2.73;47.87;98185.06;5094244;28;20407;-59
2023/03/08 03:13:40;;;;;;;1.33;0.50;;;;;;;2.79;48.56;98197.03;5094040;28;20460;-59
2023/03/08 03:16:07;;;;;;;1.85;0.50;;;;;;;2.75;48.34;98192.81;5094101;28;20033;-58
2023/03/08 03:18:33;;;;;;;1.30;0.43;;;;;;;2.81;48.27;98193.50;5093924;28;20384;-58
2023/03/08 03:21:07;;;;;;;0.73;0.30;;;;;;;2.57;48.25;98200.16;5092906;28;20047;-58
2023/03/08 03:23:33;;;;;;;1.20;0.52;;;;;;;2.54;48.35;98218.38;5093653;28;20032;-58
2023/03/08 03:26:07;;;;;;;2.08;0.47;;;;;;;2.68;47.84;98208.53;5091389;28;20093;-59
2023/03/08 03:28:32;;;;;;;2.97;0.45;;;;;;;2.62;48.18;98193.13;5090448;28;20036;-58
2023/03/08 03:30:58;;;;;;;4.00;0.60;;;;;;;2.74;48.42;98204.06;5093548;28;20189;-58
2023/03/08 03:33:23;;;;;;;1.83;0.40;;;;;;;2.43;48.45;98222.94;5091528;28;20032;-58
2023/03/08 03:35:48;;;;;;;3.20;0.50;;;;;;;2.57;48.74;98207.09;5092433;28;20055;-58
2023/03/08 03:38:14;;;;;;;2.45;0.40;;;;;;;2.63;48.86;98217.28;5092994;28;20039;-59
2023/03/08 03:40:39;;;;;;;2.08;0.40;;;;;;;2.68;48.48;98213.72;5092028;28;20036;-58
2023/03/08 03:43:05;;;;;;;1.10;0.30;;;;;;;2.30;48.32;98229.31;5093868;28;20028;-59
2023/03/08 03:45:30;;;;;;;3.20;0.40;;;;;;;2.13;48.76;98225.38;5091896;28;20032;-58
2023/03/08 03:47:56;;;;;;;2.97;0.50;;;;;;;2.31;48.16;98234.44;5089922;28;20180;-58
2023/03/08 03:50:21;;;;;;;3.63;0.90;;;;;;;2.45;48.66;98236.75;5092689;28;20046;-58
2023/03/08 03:52:46;;;;;;;2.83;0.50;;;;;;;2.60;48.14;98225.16;5092136;28;20020;-59
2023/03/08 03:55:12;;;;;;;3.22;0.40;;;;;;;2.59;48.25;98237.25;5093448;28;20031;-58
2023/03/08 03:57:37;;;;;;;2.22;0.65;;;;;;;2.41;47.92;98246.31;5093704;28;20058;-58
2023/03/08 04:00:04;;;;;;;3.50;0.50;;;;;;;2.46;47.77;98238.44;5092596;28;20075;-59
2023/03/08 04:02:30;;;;;;;2.72;0.70;;;;;;;2.54;47.78;98231.34;5092468;28;20028;-59
2023/03/08 04:04:56;;;;;;;2.50;0.90;;;;;;;2.65;48.12;98242.31;5092623;28;20111;-58
2023/03/08 04:07:21;;;;;;;2.95;0.50;;;;;;;2.43;47.81;98238.50;5093373;28;20036;-59
2023/03/08 04:09:47;;;;;;;1.60;0.60;;;;;;;2.13;47.82;98256.44;5093048;28;20369;-58
2023/03/08 04:12:13;;;;;;;4.28;0.60;;;;;;;2.35;47.91;98251.63;5091835;28;20033;-59
2023/03/08 04:14:39;;;;;;;4.55;0.57;;;;;;;2.38;47.98;98250.72;5091396;28;20028;-58
2023/03/08 04:17:05;;;;;;;1.45;0.30;;;;;;;2.53;48.17;98249.53;5092446;28;20032;-58
2023/03/08 04:19:31;;;;;;;2.65;0.50;;;;;;;2.35;47.79;98254.22;5093418;28;20097;-58
2023/03/08 04:21:56;;;;;;;2.50;0.52;;;;;;;2.77;47.67;98251.53;5076911;28;20041;-58
2023/03/08 04:24:22;;;;;;;2.22;0.70;;;;;;;2.70;47.97;98253.41;5083861;28;20034;-58
2023/03/08 04:26:47;;;;;;;1.35;0.40;;;;;;;2.47;48.22;98256.56;5092141;28;20514;-58
2023/03/08 04:29:12;;;;;;;1.60;0.52;;;;;;;2.07;48.68;98266.09;5092502;28;20438;-58
2023/03/08 04:31:38;;;;;;;1.60;0.70;;;;;;;2.43;48.63;98254.94;5091859;28;20046;-58
2023/03/08 04:34:03;;;;;;;1.35;0.40;;;;;;;2.41;48.48;98250.66;5092517;28;20031;-58
2023/03/08 04:36:29;;;;;;;1.63;0.52;;;;;;;2.56;48.37;98267.63;5074209;28;20048;-58
2023/03/08 04:38:55;;;;;;;1.35;0.40;;;;;;;2.22;48.06;98274.38;5089153;28;20083;-58
2023/03/08 04:41:20;;;;;;;2.60;0.50;;;;;;;2.66;47.95;98275.13;5092439;28;20028;-58
2023/03/08 04:43:52;;;;;;;3.85;0.60;;;;;;;2.50;47.80;98272.94;5090630;28;20040;-57
2023/03/08 04:46:21;;;;;;;1.25;0.40;;;;;;;2.60;47.93;98257.13;5088141;28;20127;-57
2023/03/08 04:48:47;;;;;;;4.30;0.80;;;;;;;2.64;47.69;98263.94;5091279;28;20072;-58
2023/03/08 04:51:15;;;;;;;2.60;0.45;;;;;;;2.14;48.07;98268.50;5091655;28;20111;-57
2023/03/08 04:53:43;;;;;;;1.40;0.40;;;;;;;2.51;47.91;98272.88;5090056;28;20043;-57
2023/03/08 04:56:09;;;;;;;3.55;0.50;;;;;;;2.50;48.12;98271.19;5093886;28;20136;-58
2023/03/08 04:58:35;;;;;;;2.20;0.43;;;;;;;2.29;48.13;98277.69;5094881;28;20166;-57
2023/03/08 05:01:17;;;;;;;3.30;0.47;;;;;;;2.24;48.06;98268.34;5094744;28;20123;-59
2023/03/08 05:03:43;;;;;;;1.52;0.40;;;;;;;2.46;48.00;98274.72;5095161;28;20403;-57
2023/03/08 05:06:11;;;;;;;3.47;0.70;;;;;;;2.03;48.17;98295.53;5094375;28;20040;-58
2023/03/08 05:08:36;;;;;;;2.17;0.60;;;;;;;1.93;48.38;98294.88;5096549;28;20021;-58
2023/03/08 05:11:03;;;;;;;3.28;0.47;;;;;;;2.06;48.39;98283.38;5093852;28;20107;-58
2023/03/08 05:13:32;;;;;;;2.38;0.70;;;;;;;2.19;48.47;98279.66;5093921;28;20132;-58
2023/03/08 05:15:58;;;;;;;2.88;0.63;;;;;;;2.15;47.93;98275.38;5094028;28;20032;-58
2023/03/08 05:18:23;;;;;;;2.53;0.70;;;;;;;2.04;48.35;98282.56;5094760;28;20035;-58
2023/03/08 05:21:12;;;;;;;4.32;0.60;;;;;;;1.96;48.17;98285.31;5094115;28;20047;-58
2023/03/08 05:23:38;;;;;;;2.28;0.70;;;;;;;2.19;48.27;98279.66;5096226;28;20028;-58
2023/03/08 05:26:04;;;;;;;2.28;0.57;;;;;;;2.36;48.30;98284.47;5093253;28;20372;-58
2023/03/08 05:28:32;;;;;;;2.30;0.60;;;;;;;2.10;47.94;98292.78;5091728;28;20027;-57
2023/03/08 05:31:19;;;;;;;1.88;0.60;;;;;;;2.25;48.01;98303.72;5092495;28;20040;-57
2023/03/08 05:33:46;;;;;;;3.20;0.60;;;;;;;2.08;48.36;98315.28;5089018;28;20055;-56
2023/03/08 05:36:13;;;;;;;2.97;0.73;;;;;;;2.34;48.13;98306.09;5094518;28;20044;-57
2023/03/08 05:38:39;;;;;;;2.53;0.60;;;;;;;2.74;47.57;98306.06;5091542;28;20048;-57
2023/03/08 05:41:07;;;;;;;2.70;1.02;;;;;;;2.08;47.72;98306.66;5094576;28;20074;-57
2023/03/08 05:43:32;;;;;;;2.72;0.65;;;;;;;2.49;47.96;98323.94;5095640;28;20032;-58
2023/03/08 05:46:02;;;;;;;3.75;0.63;;;;;;;2.28;48.35;98327.00;5091639;28;20357;-57
2023/03/08 05:48:29;;;;;;;1.48;0.50;;;;;;;2.19;48.16;98321.13;5086517;28;20320;-58
2023/03/08 05:50:54;;;;;;;1.98;0.60;;;;;;;2.43;47.94;98343.06;5092417;28;20088;-58
2023/03/08 05:53:21;;;;;;;3.10;0.45;;;;;;;2.77;47.36;98336.28;5093331;28;20111;-58
2023/03/08 05:55:47;;;;;;;3.60;0.70;;;;;;;2.74;47.18;98333.75;5095193;28;20118;-58
2023/03/08 05:58:12;;;;;;;3.33;0.75;;;;;;;2.66;47.61;98339.94;5095227;28;20853;-58
2023/03/08 06:00:38;;;;;;;2.47;0.40;;;;;;;3.03;46.98;98336.50;5095522;28;20036;-57
2023/03/08 06:03:03;;;;;;;3.28;0.60;;;;;;;2.84;47.13;98349.06;5095552;28;20486;-57
2023/03/08 06:05:30;;;;;;;1.77;0.60;;;;;;;2.96;47.12;98345.34;5095086;28;20471;-57
2023/03/08 06:07:55;;;;;;;1.98;0.70;;;;;;;2.92;47.43;98361.88;5095267;28;20069;-58
2023/03/08 06:10:21;;;;;;;6.72;0.93;;;;;;;3.10;46.85;98356.22;5091481;28;20032;-57
2023/03/08 06:12:47;;;;;;;5.60;0.88;;;;;;;3.14;46.64;98364.81;5093772;28;20040;-58
2023/03/08 06:15:12;;;;;;;1.83;0.80;;;;;;;3.35;46.89;98371.22;5095210;28;20484;-58
2023/03/08 06:17:39;;;;;;;3.33;1.02;;;;;;;2.99;47.16;98378.97;5094855;28;20047;-59
2023/03/08 06:20:05;;;;;;;4.40;1.65;;;;;;;3.05;47.25;98375.41;5095186;28;20486;-59
2023/03/08 06:22:31;;;;;;;6.82;1.30;;;;;;;3.44;46.78;98390.03;5095039;28;20024;-58
2023/03/08 06:24:56;;;;;;;2.83;1.02;;;;;;;3.25;46.68;98395.72;5094964;28;20529;-58
2023/03/08 06:27:21;;;;;;;1.80;0.80;;;;;;;3.45;46.58;98401.28;5094915;28;20028;-59
2023/03/08 06:29:47;;;;;;;2.63;0.80;;;;;;;3.22;46.52;98407.00;5094991;28;20107;-59
2023/03/08 06:32:13;;;;;;;4.93;1.00;;;;;;;3.46;46.65;98423.75;5094509;28;20039;-59
2023/03/08 06:34:38;;;;;;;2.45;0.93;;;;;;;3.71;46.01;98405.81;5094664;28;20040;-58
2023/03/08 06:37:04;;;;;;;2.85;0.95;;;;;;;3.35;46.72;98413.63;5076277;28;20387;-59
2023/03/08 06:39:30;;;;;;;4.18;1.30;;;;;;;3.57;46.65;98407.91;5094640;28;20127;-59
2023/03/08 06:41:56;;;;;;;5.22;0.80;;;;;;;3.22;46.36;98457.16;5094454;28;20118;-59
2023/03/08 06:44:22;;;;;;;3.33;0.80;;;;;;;3.39;46.49;98441.22;5094592;28;20426;-59
2023/03/08 06:46:47;;;;;;;4.72;0.90;;;;;;;3.56;46.19;98422.63;5094714;28;20472;-59
2023/03/08 06:49:13;;;;;;;3.97;1.17;;;;;;;3.60;46.19;98442.44;5094797;28;20388;-58
2023/03/08 06:51:39;;;;;;;2.60;1.00;;;;;;;3.43;46.14;98444.56;5093389;28;20403;-59
2023/03/08 06:54:04;;;;;;;2.60;0.90;;;;;;;3.89;45.76;98457.31;5094544;28;20510;-58
2023/03/08 06:56:30;;;;;;;3.45;0.88;;;;;;;3.91;45.72;98452.06;5092959;28;20380;-59
2023/03/08 06:58:55;;;;;;;3.80;1.17;;;;;;;3.60;46.42;98454.59;5093188;28;20028;-58
2023/03/08 07:01:21;;;;;;;1.58;0.68;;;;;;;3.91;45.17;98478.03;5094429;28;20050;-59
2023/03/08 07:03:47;;;;;;;3.03;0.82;;;;;;;3.53;46.39;98474.63;5094397;28;20032;-58
2023/03/08 07:06:13;;;;;;;3.17;1.00;;;;;;;4.01;45.67;98466.53;5094227;28;20053;-59
2023/03/08 07:08:39;;;;;;;2.50;0.57;;;;;;;3.81;45.67;98458.41;5094098;28;20568;-59
2023/03/08 07:11:07;;;;;;;3.85;1.15;;;;;;;4.12;45.75;98487.06;5094225;28;20118;-59
2023/03/08 07:13:33;;;;;;;3.03;0.70;;;;;;;3.99;45.66;98476.13;5094282;28;20036;-59
2023/03/08 07:16:05;;;;;;;4.85;1.33;;;;;;;4.08;45.63;98488.88;5093875;28;20372;-58
2023/03/08 07:18:30;;;;;;;3.88;1.23;;;;;;;4.06;45.49;98490.66;5093387;28;20123;-58
2023/03/08 07:20:56;;;;;;;4.47;1.10;;;;;;;4.05;45.57;98496.75;5093891;28;20059;-58
2023/03/08 07:23:22;;;;;;;3.90;1.00;;;;;;;4.18;45.44;98485.13;5093740;28;20040;-58
2023/03/08 07:25:48;;;;;;;3.75;0.90;;;;;;;4.19;44.87;98484.25;5094018;28;20043;-58
2023/03/08 07:28:13;;;;;;;3.65;1.00;;;;;;;4.31;45.07;98479.59;5093981;28;20031;-58
2023/03/08 07:30:39;;;;;;;3.83;0.80;;;;;;;4.37;45.05;98514.13;5093743;28;20387;-58
2023/03/08 07:33:04;;;;;;;1.38;0.68;;;;;;;4.33;45.18;98509.03;5093874;28;20093;-58
2023/03/08 07:35:30;;;;;;;4.18;0.90;;;;;;;4.00;44.47;98537.59;5093746;28;20059;-58
2023/03/08 07:37:57;;;;;;;2.72;1.00;;;;;;;4.47;45.16;98512.16;5093493;28;20048;-58
2023/03/08 07:40:22;;;;;;;1.98;0.70;;;;;;;3.93;45.41;98531.69;5093941;28;20034;-58
2023/03/08 07:42:48;;;;;;;2.33;0.65;;;;;;;4.18;45.08;98518.94;5094146;28;20124;-58
2023/03/08 07:45:14;;;;;;;3.13;0.70;;;;;;;4.42;45.06;98519.19;5093892;28;20119;-59
2023/03/08 07:47:39;;;;;;;7.28;1.00;;;;;;;4.27;44.62;98530.88;5093517;28;20398;-59
2023/03/08 07:50:06;;;;;;;2.85;0.90;;;;;;;4.16;44.82;98546.72;5075449;28;20040;-59
2023/03/08 07:52:31;;;;;;;3.47;1.05;;;;;;;4.26;44.94;98552.53;5093305;28;20039;-59
2023/03/08 07:54:57;;;;;;;2.42;0.75;;;;;;;4.80;44.02;98531.19;5092093;28;20034;-58
2023/03/08 07:57:23;;;;;;;2.13;0.60;;;;;;;4.63;44.24;98568.06;5092323;28;20072;-59
2023/03/08 07:59:51;;;;;;;3.22;0.75;;;;;;;4.31;44.25;98557.63;5093474;28;20058;-59
2023/03/08 08:02:17;;;;;;;2.75;0.70;;;;;;;4.74;44.16;98577.31;5093663;28;20042;-59
2023/03/08 08:04:43;;;;;;;2.70;0.60;;;;;;;4.74;44.10;98559.09;5093445;28;20501;-59
2023/03/08 08:07:14;;;;;;;1.58;0.52;;;;;;;5.07;43.69;98570.34;5092102;28;20044;-59
2023/03/08 08:09:40;;;;;;;2.20;0.60;;;;;;;4.85;44.05;98575.28;5093291;28;20036;-57
2023/03/08 08:12:06;;;;;;;3.33;0.73;;;;;;;4.65;44.00;98571.47;5093517;28;20024;-59
2023/03/08 08:14:32;;;;;;;1.42;0.60;;;;;;;4.73;44.10;98586.03;5093230;28;20028;-58
2023/03/08 08:16:57;;;;;;;3.00;0.80;;;;;;;4.67;43.97;98597.47;5091913;28;20032;-59
2023/03/08 08:19:24;;;;;;;1.95;0.60;;;;;;;4.86;44.22;98584.78;5092012;28;20073;-59
2023/03/08 08:21:49;;;;;;;2.63;0.70;;;;;;;4.77;43.67;98585.03;5093180;28;20036;-58
2023/03/08 08:24:15;;;;;;;1.85;0.73;;;;;;;4.88;43.71;98594.28;5092142;28;20123;-58
2023/03/08 08:26:40;;;;;;;3.30;0.80;;;;;;;4.80;43.89;98621.41;5093374;28;20141;-59
2023/03/08 08:29:06;;;;;;;8.57;0.68;;;;;;;4.74;43.19;98583.38;5094461;28;20036;-59
2023/03/08 08:31:32;;;;;;;2.55;0.60;;;;;;;5.13;43.59;98591.00;5096025;28;20035;-59
2023/03/08 08:33:58;;;;;;;3.45;0.50;;;;;;;5.00;42.87;98600.91;5097103;28;20036;-58
2023/03/08 08:36:24;;;;;;;1.80;0.50;;;;;;;4.54;42.98;98619.47;5097219;28;20062;-59
2023/03/08 08:38:50;;;;;;;1.48;0.40;;;;;;;4.84;42.67;98604.81;5097182;28;20491;-58
2023/03/08 08:41:17;;;;;;;3.20;0.80;;;;;;;5.46;42.68;98611.75;5097520;28;20032;-58
2023/03/08 08:43:44;;;;;;;2.78;0.52;;;;;;;5.62;42.38;98616.47;5096999;28;20116;-58
2023/03/08 08:46:10;;;;;;;3.63;0.85;;;;;;;5.04;42.66;98610.31;5096979;28;20089;-59
2023/03/08 08:48:37;;;;;;;3.90;0.52;;;;;;;5.01;42.89;98615.63;5096915;28;20097;-59
2023/03/08 08:51:04;;;;;;;2.75;0.65;;;;;;;5.38;41.90;98628.44;5096719;28;20032;-59
2023/03/08 08:53:30;;;;;;;2.45;0.70;;;;;;;5.38;42.35;98632.81;5096918;28;20035;-59
2023/03/08 08:55:56;;;;;;;3.00;0.60;;;;;;;5.56;42.14;98631.44;5097093;28;20486;-58
2023/03/08 08:58:22;;;;;;;5.55;0.70;;;;;;;5.26;41.70;98601.91;5096955;28;20092;-58
2023/03/08 09:00:48;;;;;;;5.03;1.70;;;;;;;5.39;42.07;98619.75;5096519;28;20039;-58
2023/03/08 09:03:13;;;;;;;1.10;0.45;;;;;;;5.32;41.52;98640.81;5096521;28;20032;-60
2023/03/08 09:05:41;;;;;;;3.60;1.52;;;;;;;5.30;41.50;98621.75;5095089;28;20032;-59
2023/03/08 09:08:08;;;;;;;3.28;1.20;;;;;;;5.57;41.28;98638.34;5095611;28;20528;-59
2023/03/08 09:10:37;;;;;;;3.60;0.75;;;;;;;5.95;40.88;98652.06;5096798;28;20034;-59
2023/03/08 09:13:03;;;;;;;4.82;1.48;;;;;;;5.88;40.51;98661.75;5095174;28;20032;-59
2023/03/08 09:15:28;;;;;;;3.90;1.67;;;;;;;6.36;40.58;98641.16;5095201;28;20078;-59
2023/03/08 09:17:54;;;;;;;3.65;1.08;;;;;;;5.67;39.54;98648.47;5096191;28;20055;-59
2023/03/08 09:20:19;;;;;;;2.47;0.60;;;;;;;5.78;40.59;98653.34;5096631;28;20044;-59
2023/03/08 09:22:45;;;;;;;2.72;0.60;;;;;;;5.72;40.80;98640.50;5096316;28;20058;-59
2023/03/08 09:25:11;;;;;;;2.63;0.82;;;;;;;5.79;40.76;98654.22;5095163;28;20166;-59
2023/03/08 09:27:38;;;;;;;3.70;0.90;;;;;;;5.64;41.18;98640.75;5096216;28;20044;-59
2023/03/08 09:30:05;;;;;;;3.10;0.50;;;;;;;5.31;41.04;98652.13;5096188;28;20039;-58
2023/03/08 09:32:35;;;;;;;3.92;0.55;;;;;;;5.43;41.39;98667.41;5094614;28;20036;-59
2023/03/08 09:35:00;;;;;;;2.17;0.77;;;;;;;5.30;40.95;98661.66;5095963;28;20051;-60
2023/03/08 09:37:26;;;;;;;1.85;0.75;;;;;;;5.75;40.42;98655.22;5095999;28;20444;-59
2023/03/08 09:39:52;;;;;;;2.05;1.20;;;;;;;5.57;41.09;98665.25;5095981;28;20162;-60
2023/03/08 09:42:26;;;;;;;3.72;0.90;;;;;;;5.59;41.26;98671.28;5095372;28;20035;-58
2023/03/08 09:45:17;;;;;;;2.22;0.70;;;;;;;5.79;40.94;98672.47;5095748;28;20042;-59
2023/03/08 09:47:49;;;;;;;3.95;0.90;;;;;;;6.28;40.79;98652.75;5095891;28;20020;-58
2023/03/08 09:50:54;;;;;;;4.60;0.80;;;;;;;5.61;41.27;98692.94;5094390;28;20028;-59
2023/03/08 09:53:27;;;;;;;3.33;0.80;;;;;;;6.55;40.10;98671.88;5094171;28;20265;-59
2023/03/08 09:56:02;;;;;;;3.38;1.40;;;;;;;6.55;39.13;98677.09;5095653;28;20024;-58
2023/03/08 09:58:41;;;;;;;3.97;1.00;;;;;;;6.53;38.83;98677.13;5095595;28;20380;-59
2023/03/08 10:01:26;;;;;;;3.35;0.70;;;;;;;6.62;39.06;98679.47;5095621;28;20062;-59
2023/03/08 10:04:10;;;;;;;1.38;0.80;;;;;;;6.08;39.23;98664.66;5095304;28;20092;-60
2023/03/08 10:06:42;;;;;;;3.22;1.10;;;;;;;5.84;39.55;98694.03;5094203;28;20114;-59
2023/03/08 10:09:40;;;;;;;6.85;3.50;;;;;;;6.17;40.21;98706.09;5094174;28;20063;-61
2023/03/08 10:12:28;;;;;;;2.97;1.20;;;;;;;6.04;38.81;98696.94;5095238;28;20032;-61
2023/03/08 10:15:00;;;;;;;4.00;1.35;;;;;;;6.44;39.24;98689.63;5095378;28;20055;-58
2023/03/08 10:17:57;;;;;;;2.83;0.68;;;;;;;6.07;38.65;98670.78;5095279;28;20456;-59
2023/03/08 10:20:26;;;;;;;2.78;0.90;;;;;;;6.60;37.82;98681.25;5069578;28;20036;-58
2023/03/08 10:23:17;;;;;;;4.78;0.90;;;;;;;6.61;37.58;98701.22;5095170;28;20456;-58
2023/03/08 10:25:43;;;;;;;2.38;0.77;;;;;;;6.24;37.63;98682.44;5095121;28;20035;-58
2023/03/08 10:28:17;;;;;;;2.35;0.80;;;;;;;6.56;37.71;98687.50;5095003;28;20067;-58
2023/03/08 10:30:53;;;;;;;2.22;0.80;;;;;;;6.64;37.24;98693.31;5095035;28;20058;-58
2023/03/08 10:33:25;;;;;;;2.80;0.80;;;;;;;7.12;35.79;98686.50;5094966;28;20459;-59
2023/03/08 10:35:59;;;;;;;2.78;1.08;;;;;;;7.66;34.43;98706.38;5094728;28;20048;-59
2023/03/08 10:38:30;;;;;;;2.53;1.00;;;;;;;7.31;35.50;98718.06;5095010;28;20028;-59
2023/03/08 10:41:13;;;;;;;1.42;0.73;;;;;;;7.62;35.63;98708.25;5094743;28;20039;-59
2023/03/08 10:43:44;;;;;;;3.42;0.60;;;;;;;7.48;36.19;98696.56;5094699;28;20028;-58
2023/03/08 10:46:16;;;;;;;0.95;0.40;;;;;;;7.96;34.79;98714.84;5093703;28;20085;-58
2023/03/08 10:48:43;;;;;;;1.05;0.50;;;;;;;7.81;34.77;98710.16;5094699;28;20116;-59
2023/03/08 10:51:19;;;;;;;3.40;1.10;;;;;;;7.87;33.36;98707.34;5094445;28;20111;-58
2023/03/08 10:53:58;;;;;;;2.28;0.88;;;;;;;7.33;34.13;98713.63;5093290;28;20040;-59
2023/03/08 10:56:31;;;;;;;2.55;0.90;;;;;;;8.09;34.42;98705.59;5094577;28;20491;-59
2023/03/08 10:58:57;;;;;;;5.60;1.67;;;;;;;8.40;34.73;98707.06;5076670;28;20027;-59
2023/03/08 11:01:24;;;;;;;4.25;1.73;;;;;;;8.70;34.91;98702.41;5094485;28;20036;-59
2023/03/08 11:04:12;;;;;;;2.10;1.10;;;;;;;7.79;35.17;98732.91;5094162;28;20040;-59
2023/03/08 11:06:38;;;;;;;2.65;0.98;;;;;;;7.97;35.20;98732.22;5094249;28;20043;-58
2023/03/08 11:09:21;;;;;;;2.55;0.88;;;;;;;7.62;34.59;98730.88;5094194;28;20028;-59
2023/03/08 11:11:47;;;;;;;2.30;0.63;;;;;;;7.73;35.35;98709.59;5094036;28;20474;-60
2023/03/08 11:14:14;;;;;;;2.95;0.63;;;;;;;8.00;35.60;98707.72;5094062;28;20032;-59
2023/03/08 11:16:42;;;;;;;1.70;0.45;;;;;;;7.92;34.84;98707.16;5094091;28;20521;-59
2023/03/08 11:19:28;;;;;;;2.33;0.70;;;;;;;8.00;35.51;98718.19;5094262;28;20463;-59
2023/03/08 11:22:02;;;;;;;1.73;0.50;;;;;;;8.06;35.30;98717.97;5094270;28;20140;-59
2023/03/08 11:24:43;;;;;;;1.55;0.52;;;;;;;8.22;34.68;98720.81;5094231;28;20032;-60
2023/03/08 11:27:42;;;;;;;3.20;0.90;;;;;;;8.28;34.55;98716.22;5093867;28;20115;-59
2023/03/08 11:30:35;;;;;;;2.47;0.68;;;;;;;8.23;33.83;98709.47;5085549;28;20126;-59
2023/03/08 11:33:46;;;;;;;1.98;0.60;;;;;;;7.70;35.19;98730.63;5093837;28;20059;-58
2023/03/08 11:36:39;;;;;;;1.35;0.80;;;;;;;7.99;35.51;98722.56;5069840;28;20048;-62
2023/03/08 11:39:25;;;;;;;2.53;1.00;;;;;;;7.55;35.53;98730.28;5093977;28;20101;-59
2023/03/08 11:41:56;;;;;;;5.57;0.70;;;;;;;7.26;36.35;98717.34;5093854;28;20051;-59
2023/03/08 11:44:50;;;;;;;1.95;0.70;;;;;;;7.63;35.55;98715.16;5093786;28;20030;-59
2023/03/08 11:47:34;;;;;;;1.63;0.80;;;;;;;7.77;35.73;98714.66;5093654;28;20036;-59